createdAt,value
2023-05-09T00:02:08.084Z,101302.35
2023-05-09T00:04:35.557Z,101297.50
2023-05-09T00:07:02.778Z,101298.09
2023-05-09T00:09:29.471Z,101300.95
2023-05-09T00:11:56.112Z,101300.23
2023-05-09T00:14:24.919Z,101300.24
2023-05-09T00:16:51.679Z,101300.00
2023-05-09T00:19:18.455Z,101297.76
2023-05-09T00:21:46.423Z,101293.67
2023-05-09T00:24:13.062Z,101297.02
2023-05-09T00:26:39.664Z,101298.09
2023-05-09T00:29:06.401Z,101294.54
2023-05-09T00:31:33.144Z,101295.35
2023-05-09T00:33:59.750Z,101292.52
2023-05-09T00:36:26.386Z,101290.27
2023-05-09T00:38:53.074Z,101290.46
2023-05-09T00:41:19.685Z,101290.77
2023-05-09T00:43:46.623Z,101289.79
2023-05-09T00:46:13.309Z,101290.92
2023-05-09T00:48:40.178Z,101291.52
2023-05-09T00:51:07.562Z,101286.65
2023-05-09T00:53:34.194Z,101289.39
2023-05-09T00:56:01.297Z,101286.80
2023-05-09T00:58:28.276Z,101287.64
2023-05-09T01:00:54.889Z,101284.66
2023-05-09T01:03:21.846Z,101287.95
2023-05-09T01:06:17.891Z,101283.17
2023-05-09T01:08:52.730Z,101279.80
2023-05-09T01:11:36.315Z,101276.70
2023-05-09T01:14:06.867Z,101270.23
2023-05-09T01:16:57.773Z,101274.38
2023-05-09T01:19:54.170Z,101274.56
2023-05-09T01:22:35.965Z,101272.52
2023-05-09T01:25:13.173Z,101279.77
2023-05-09T01:27:54.125Z,101277.81
2023-05-09T01:30:21.232Z,101277.73
2023-05-09T01:32:51.510Z,101280.45
2023-05-09T01:35:21.564Z,101278.69
2023-05-09T01:37:51.127Z,101283.48
2023-05-09T01:40:21.458Z,101286.55
2023-05-09T01:42:58.448Z,101284.06
2023-05-09T01:45:27.069Z,101283.23
2023-05-09T01:47:54.572Z,101283.20
2023-05-09T01:50:23.110Z,101281.08
2023-05-09T01:52:53.729Z,101280.42
2023-05-09T01:55:25.808Z,101278.55
2023-05-09T01:57:54.137Z,101287.35
2023-05-09T02:00:22.140Z,101286.71
2023-05-09T02:02:50.261Z,101289.27
2023-05-09T02:05:18.404Z,101288.27
2023-05-09T02:07:47.548Z,101281.30
2023-05-09T02:10:16.021Z,101275.38
2023-05-09T02:12:42.662Z,101269.41
2023-05-09T02:15:09.920Z,101275.19
2023-05-09T02:17:40.112Z,101275.27
2023-05-09T02:20:09.943Z,101271.72
2023-05-09T02:22:36.983Z,101270.67
2023-05-09T02:25:05.055Z,101266.07
2023-05-09T02:27:34.932Z,101266.29
2023-05-09T02:30:07.437Z,101258.45
2023-05-09T02:32:35.863Z,101257.19
2023-05-09T02:35:04.242Z,101256.50
2023-05-09T02:37:31.124Z,101252.50
2023-05-09T02:39:58.580Z,101251.23
2023-05-09T02:42:26.871Z,101254.76
2023-05-09T02:44:54.839Z,101252.64
2023-05-09T02:47:22.347Z,101251.59
2023-05-09T02:49:49.003Z,101251.30
2023-05-09T02:52:16.113Z,101252.80
2023-05-09T02:54:42.968Z,101250.44
2023-05-09T02:57:09.746Z,101249.59
2023-05-09T02:59:36.576Z,101250.70
2023-05-09T03:02:03.255Z,101245.49
2023-05-09T03:04:30.615Z,101245.55
2023-05-09T03:06:57.493Z,101244.23
2023-05-09T03:09:26.423Z,101243.20
2023-05-09T03:11:53.057Z,101243.70
2023-05-09T03:14:20.353Z,101242.83
2023-05-09T03:16:47.034Z,101240.56
2023-05-09T03:19:20.783Z,101238.61
2023-05-09T03:21:47.517Z,101234.89
2023-05-09T03:24:14.537Z,101236.00
2023-05-09T03:26:41.306Z,101232.67
2023-05-09T03:29:07.955Z,101227.33
2023-05-09T03:31:35.053Z,101225.48
2023-05-09T03:34:02.066Z,101231.02
2023-05-09T03:36:28.863Z,101232.81
2023-05-09T03:38:55.668Z,101233.03
2023-05-09T03:41:22.855Z,101239.50
2023-05-09T03:43:50.094Z,101236.83
2023-05-09T03:46:16.848Z,101238.13
2023-05-09T03:48:45.105Z,101237.20
2023-05-09T03:51:12.192Z,101238.58
2023-05-09T03:53:39.638Z,101238.50
2023-05-09T03:56:07.773Z,101243.77
2023-05-09T03:58:38.553Z,101245.16
2023-05-09T04:01:06.036Z,101249.52
2023-05-09T04:03:33.074Z,101247.17
2023-05-09T04:06:00.324Z,101252.33
2023-05-09T04:08:33.642Z,101254.70
2023-05-09T04:11:00.738Z,101260.92
2023-05-09T04:13:28.342Z,101262.14
2023-05-09T04:15:55.506Z,101265.42
2023-05-09T04:18:22.760Z,101265.31
2023-05-09T04:20:49.388Z,101261.29
2023-05-09T04:23:16.173Z,101261.44
2023-05-09T04:25:43.881Z,101263.84
2023-05-09T04:28:10.858Z,101263.72
2023-05-09T04:30:37.910Z,101264.39
2023-05-09T04:33:04.609Z,101265.65
2023-05-09T04:35:32.373Z,101260.85
2023-05-09T04:37:59.057Z,101266.89
2023-05-09T04:40:27.097Z,101262.02
2023-05-09T04:42:59.814Z,101259.04
2023-05-09T04:45:28.897Z,101255.08
2023-05-09T04:47:56.959Z,101253.02
2023-05-09T04:50:23.732Z,101248.27
2023-05-09T04:52:50.554Z,101254.88
2023-05-09T04:55:17.654Z,101254.59
2023-05-09T04:57:46.508Z,101261.98
2023-05-09T05:00:13.775Z,101264.67
2023-05-09T05:02:40.940Z,101263.49
2023-05-09T05:05:12.143Z,101261.13
2023-05-09T05:07:41.403Z,101260.92
2023-05-09T05:10:09.111Z,101262.05
2023-05-09T05:12:37.118Z,101264.80
2023-05-09T05:15:07.135Z,101270.15
2023-05-09T05:17:34.172Z,101266.56
2023-05-09T05:20:01.368Z,101270.56
2023-05-09T05:22:31.582Z,101273.17
2023-05-09T05:24:59.432Z,101275.22
2023-05-09T05:27:26.385Z,101280.45
2023-05-09T05:29:53.621Z,101281.23
2023-05-09T05:32:20.799Z,101276.81
2023-05-09T05:34:47.854Z,101281.98
2023-05-09T05:37:14.554Z,101281.58
2023-05-09T05:39:41.673Z,101277.41
2023-05-09T05:42:08.841Z,101276.73
2023-05-09T05:44:36.079Z,101275.59
2023-05-09T05:47:02.930Z,101278.83
2023-05-09T05:49:29.591Z,101281.83
2023-05-09T05:51:56.529Z,101284.69
2023-05-09T05:54:23.163Z,101284.49
2023-05-09T05:56:50.037Z,101283.52
2023-05-09T05:59:16.827Z,101285.88
2023-05-09T06:01:43.588Z,101287.77
2023-05-09T06:04:10.625Z,101290.17
2023-05-09T06:06:37.645Z,101292.17
2023-05-09T06:09:04.422Z,101289.52
2023-05-09T06:11:31.082Z,101287.85
2023-05-09T06:13:59.061Z,101288.41
2023-05-09T06:16:27.955Z,101285.76
2023-05-09T06:18:55.954Z,101282.24
2023-05-09T06:21:23.596Z,101279.10
2023-05-09T06:24:04.331Z,101281.43
2023-05-09T06:26:33.050Z,101285.44
2023-05-09T06:28:59.814Z,101281.58
2023-05-09T06:31:27.038Z,101280.08
2023-05-09T06:33:53.924Z,101282.80
2023-05-09T06:36:20.655Z,101285.42
2023-05-09T06:38:47.399Z,101285.46
2023-05-09T06:41:14.072Z,101289.04
2023-05-09T06:43:40.734Z,101287.87
2023-05-09T06:46:07.452Z,101288.93
2023-05-09T06:48:34.165Z,101290.66
2023-05-09T06:51:00.913Z,101289.88
2023-05-09T06:53:27.534Z,101290.67
2023-05-09T06:55:54.263Z,101283.68
2023-05-09T06:58:20.924Z,101277.63
2023-05-09T07:00:47.999Z,101280.36
2023-05-09T07:03:14.720Z,101283.08
2023-05-09T07:05:41.604Z,101280.48
2023-05-09T07:08:08.233Z,101277.52
2023-05-09T07:10:35.059Z,101274.54
2023-05-09T07:13:02.033Z,101273.98
2023-05-09T07:15:40.537Z,101271.33
2023-05-09T07:18:09.306Z,101268.05
2023-05-09T07:20:36.528Z,101263.93
2023-05-09T07:23:04.331Z,101261.40
2023-05-09T07:25:31.197Z,101262.08
2023-05-09T07:27:58.259Z,101261.61
2023-05-09T07:30:25.342Z,101263.95
2023-05-09T07:32:52.384Z,101262.71
2023-05-09T07:35:20.618Z,101258.43
2023-05-09T07:37:47.245Z,101252.97
2023-05-09T07:40:14.837Z,101253.36
2023-05-09T07:42:45.065Z,101246.39
2023-05-09T07:45:12.057Z,101242.64
2023-05-09T07:47:38.851Z,101239.39
2023-05-09T07:50:06.383Z,101236.30
2023-05-09T07:52:33.974Z,101231.71
2023-05-09T07:55:00.788Z,101228.59
2023-05-09T07:57:27.448Z,101224.21
2023-05-09T07:59:55.203Z,101226.51
2023-05-09T08:02:21.904Z,101218.84
2023-05-09T08:04:49.208Z,101219.98
2023-05-09T08:07:16.477Z,101217.46
2023-05-09T08:09:43.340Z,101217.59
2023-05-09T08:12:10.092Z,101214.77
2023-05-09T08:14:36.825Z,101213.85
2023-05-09T08:17:03.476Z,101221.60
2023-05-09T08:19:30.252Z,101220.65
2023-05-09T08:21:57.046Z,101220.96
2023-05-09T08:24:23.806Z,101219.20
2023-05-09T08:26:51.558Z,101214.77
2023-05-09T08:29:18.312Z,101211.84
2023-05-09T08:31:45.131Z,101214.70
2023-05-09T08:34:12.051Z,101211.96
2023-05-09T08:36:39.508Z,101205.08
2023-05-09T08:39:06.071Z,101199.13
2023-05-09T08:41:36.298Z,101203.21
2023-05-09T08:44:03.506Z,101199.40
2023-05-09T08:46:38.483Z,101193.91
2023-05-09T08:49:07.455Z,101186.54
2023-05-09T08:51:35.950Z,101187.66
2023-05-09T08:54:04.225Z,101187.13
2023-05-09T08:56:31.661Z,101186.05
2023-05-09T08:58:59.322Z,101185.70
2023-05-09T09:01:26.964Z,101187.24
2023-05-09T09:03:54.018Z,101188.61
2023-05-09T09:06:23.264Z,101195.57
2023-05-09T09:08:50.972Z,101189.89
2023-05-09T09:11:18.873Z,101190.00
2023-05-09T09:13:47.692Z,101189.95
2023-05-09T09:16:22.461Z,101190.38
2023-05-09T09:18:52.378Z,101189.03
2023-05-09T09:21:20.810Z,101186.81
2023-05-09T09:23:48.988Z,101179.71
2023-05-09T09:26:16.544Z,101173.48
2023-05-09T09:28:43.520Z,101167.89
2023-05-09T09:31:28.533Z,101162.82
2023-05-09T09:34:03.032Z,101160.12
2023-05-09T09:36:32.667Z,101158.86
2023-05-09T09:39:01.143Z,101156.21
2023-05-09T09:41:36.067Z,101150.42
2023-05-09T09:44:19.913Z,101153.19
2023-05-09T09:46:56.177Z,101149.61
2023-05-09T09:49:24.847Z,101148.40
2023-05-09T09:51:52.186Z,101144.87
2023-05-09T09:54:18.900Z,101145.98
2023-05-09T09:56:47.619Z,101148.56
2023-05-09T09:59:19.330Z,101150.29
2023-05-09T10:01:58.079Z,101152.35
2023-05-09T10:04:27.125Z,101151.84
2023-05-09T10:06:57.948Z,101154.48
2023-05-09T10:09:26.245Z,101146.31
2023-05-09T10:11:55.067Z,101144.10
2023-05-09T10:14:24.299Z,101138.38
2023-05-09T10:16:57.647Z,101139.10
2023-05-09T10:19:27.408Z,101139.61
2023-05-09T10:21:56.469Z,101135.70
2023-05-09T10:24:38.607Z,101134.09
2023-05-09T10:27:11.506Z,101132.11
2023-05-09T10:29:44.536Z,101134.84
2023-05-09T10:32:21.116Z,101132.59
2023-05-09T10:34:51.465Z,101128.41
2023-05-09T10:37:18.591Z,101131.63
2023-05-09T10:39:46.692Z,101129.30
2023-05-09T10:42:14.291Z,101126.26
2023-05-09T10:44:41.445Z,101124.07
2023-05-09T10:47:08.469Z,101122.15
2023-05-09T10:49:37.072Z,101122.81
2023-05-09T10:52:04.336Z,101124.98
2023-05-09T10:54:33.585Z,101125.20
2023-05-09T10:57:00.942Z,101125.55
2023-05-09T10:59:43.740Z,101123.17
2023-05-09T11:02:14.956Z,101120.75
2023-05-09T11:04:42.120Z,101108.48
2023-05-09T11:07:26.426Z,101100.23
2023-05-09T11:10:07.519Z,101097.29
2023-05-09T11:12:34.290Z,101097.06
2023-05-09T11:15:08.237Z,101091.57
2023-05-09T11:17:38.690Z,101090.79
2023-05-09T11:20:06.527Z,101086.46
2023-05-09T11:22:44.745Z,101086.19
2023-05-09T11:25:13.248Z,101082.69
2023-05-09T11:27:42.600Z,101078.25
2023-05-09T11:30:11.742Z,101077.33
2023-05-09T11:32:44.086Z,101074.66
2023-05-09T11:35:17.298Z,101075.91
2023-05-09T11:37:52.546Z,101069.92
2023-05-09T11:40:21.123Z,101064.80
2023-05-09T11:42:56.232Z,101057.96
2023-05-09T11:45:30.610Z,101054.48
2023-05-09T11:47:57.847Z,101048.69
2023-05-09T11:50:25.203Z,101054.08
2023-05-09T11:52:52.087Z,101054.91
2023-05-09T11:55:22.781Z,101057.65
2023-05-09T11:57:51.873Z,101054.59
2023-05-09T12:00:23.955Z,101048.10
2023-05-09T12:02:51.484Z,101053.36
2023-05-09T12:05:20.711Z,101049.52
2023-05-09T12:07:47.822Z,101047.05
2023-05-09T12:10:25.553Z,101043.55
2023-05-09T12:12:55.573Z,101038.52
2023-05-09T12:15:23.142Z,101031.73
2023-05-09T12:18:04.505Z,101033.55
2023-05-09T12:20:46.239Z,101033.75
2023-05-09T12:23:14.574Z,101028.20
2023-05-09T12:25:48.814Z,101024.89
2023-05-09T12:28:16.695Z,101020.88
2023-05-09T12:30:45.194Z,101012.55
2023-05-09T12:33:12.633Z,101007.97
2023-05-09T12:35:40.280Z,101007.73
2023-05-09T12:38:07.637Z,101001.96
2023-05-09T12:40:34.643Z,101000.00
2023-05-09T12:43:02.947Z,101003.97
2023-05-09T12:45:33.727Z,101004.58
2023-05-09T12:48:02.488Z,101001.27
2023-05-09T12:50:36.601Z,101001.19
2023-05-09T12:53:06.926Z,100998.81
2023-05-09T12:55:41.216Z,100997.05
2023-05-09T12:58:07.928Z,100988.15
2023-05-09T13:00:46.904Z,100984.35
2023-05-09T13:03:25.617Z,100984.50
2023-05-09T13:06:06.604Z,100980.59
2023-05-09T13:08:33.518Z,100971.13
2023-05-09T13:11:11.927Z,100967.00
2023-05-09T13:13:42.552Z,100961.64
2023-05-09T13:16:10.722Z,100961.41
2023-05-09T13:18:38.781Z,100959.35
2023-05-09T13:21:05.673Z,100958.05
2023-05-09T13:23:32.474Z,100954.65
2023-05-09T13:25:59.132Z,100957.95
2023-05-09T13:28:25.927Z,100952.23
2023-05-09T13:30:52.703Z,100946.53
2023-05-09T13:33:25.958Z,100943.86
2023-05-09T13:35:53.734Z,100941.45
2023-05-09T13:38:20.449Z,100941.23
2023-05-09T13:40:47.155Z,100942.27
2023-05-09T13:43:13.768Z,100932.95
2023-05-09T13:45:40.653Z,100922.35
2023-05-09T13:48:07.481Z,100921.39
2023-05-09T13:50:34.409Z,100920.57
2023-05-09T13:53:01.078Z,100912.43
2023-05-09T13:55:27.861Z,100911.41
2023-05-09T13:57:54.967Z,100910.31
2023-05-09T14:00:22.324Z,100910.77
2023-05-09T14:02:48.993Z,100902.43
2023-05-09T14:05:17.051Z,100903.63
2023-05-09T14:07:45.203Z,100902.99
2023-05-09T14:10:12.813Z,100904.15
2023-05-09T14:12:40.689Z,100899.79
2023-05-09T14:15:08.394Z,100893.45
2023-05-09T14:17:35.671Z,100889.71
2023-05-09T14:20:02.343Z,100891.39
2023-05-09T14:22:28.966Z,100889.98
2023-05-09T14:24:57.416Z,100886.77
2023-05-09T14:27:25.121Z,100882.02
2023-05-09T14:29:52.162Z,100880.63
2023-05-09T14:32:18.806Z,100876.73
2023-05-09T14:34:45.906Z,100871.59
2023-05-09T14:37:15.553Z,100868.35
2023-05-09T14:39:43.448Z,100865.80
2023-05-09T14:42:11.723Z,100863.39
2023-05-09T14:44:38.819Z,100871.34
2023-05-09T14:47:06.116Z,100871.34
2023-05-09T14:49:33.568Z,100871.33
2023-05-09T14:52:00.406Z,100873.98
2023-05-09T14:54:27.191Z,100876.73
2023-05-09T14:56:53.892Z,100877.49
2023-05-09T14:59:20.656Z,100871.54
2023-05-09T15:01:47.606Z,100874.95
2023-05-09T15:04:14.354Z,100874.02
2023-05-09T15:06:41.146Z,100870.73
2023-05-09T15:09:08.502Z,100865.75
2023-05-09T15:11:46.676Z,100865.89
2023-05-09T15:14:15.025Z,100868.61
2023-05-09T15:16:41.987Z,100863.69
2023-05-09T15:19:09.080Z,100864.65
2023-05-09T15:21:36.120Z,100863.27
2023-05-09T15:24:03.728Z,100870.72
2023-05-09T15:26:30.628Z,100865.48
2023-05-09T15:28:57.233Z,100862.93
2023-05-09T15:31:25.626Z,100866.34
2023-05-09T15:33:52.445Z,100863.85
2023-05-09T15:36:19.054Z,100861.58
2023-05-09T15:38:49.371Z,100859.73
2023-05-09T15:41:17.122Z,100858.39
2023-05-09T15:43:44.003Z,100858.05
2023-05-09T15:46:10.771Z,100856.00
2023-05-09T15:48:37.601Z,100855.83
2023-05-09T15:51:04.531Z,100856.52
2023-05-09T15:53:31.258Z,100856.05
2023-05-09T15:55:58.163Z,100849.62
2023-05-09T15:58:25.104Z,100851.38
2023-05-09T16:00:52.132Z,100852.02
2023-05-09T16:03:19.438Z,100850.36
2023-05-09T16:05:46.312Z,100851.14
2023-05-09T16:08:13.077Z,100857.58
2023-05-09T16:10:40.585Z,100854.59
2023-05-09T16:13:08.065Z,100857.77
2023-05-09T16:15:35.396Z,100855.99
2023-05-09T16:18:02.254Z,100850.84
2023-05-09T16:20:29.143Z,100852.95
2023-05-09T16:22:55.963Z,100850.01
2023-05-09T16:25:22.817Z,100847.80
2023-05-09T16:27:49.553Z,100849.27
2023-05-09T16:30:16.655Z,100852.55
2023-05-09T16:32:43.748Z,100849.25
2023-05-09T16:35:10.567Z,100852.11
2023-05-09T16:37:37.617Z,100848.27
2023-05-09T16:40:04.899Z,100845.98
2023-05-09T16:42:32.018Z,100846.31
2023-05-09T16:44:58.765Z,100842.16
2023-05-09T16:47:25.631Z,100848.05
2023-05-09T16:49:52.267Z,100846.95
2023-05-09T16:52:18.886Z,100847.29
2023-05-09T16:54:45.536Z,100848.20
2023-05-09T16:57:13.242Z,100843.98
2023-05-09T16:59:40.331Z,100841.16
2023-05-09T17:02:07.243Z,100842.02
2023-05-09T17:04:36.743Z,100836.52
2023-05-09T17:07:04.311Z,100833.44
2023-05-09T17:09:32.319Z,100831.22
2023-05-09T17:12:00.611Z,100829.48
2023-05-09T17:14:27.204Z,100824.89
2023-05-09T17:16:54.063Z,100828.70
2023-05-09T17:19:23.497Z,100822.06
2023-05-09T17:21:50.401Z,100821.05
2023-05-09T17:24:17.470Z,100826.95
2023-05-09T17:26:44.171Z,100833.13
2023-05-09T17:29:10.840Z,100836.52
2023-05-09T17:31:37.541Z,100838.48
2023-05-09T17:34:05.674Z,100835.45
2023-05-09T17:36:33.856Z,100837.47
2023-05-09T17:39:01.004Z,100837.44
2023-05-09T17:41:27.877Z,100840.27
2023-05-09T17:43:57.456Z,100833.73
2023-05-09T17:46:24.836Z,100827.04
2023-05-09T17:48:51.913Z,100831.42
2023-05-09T17:51:18.734Z,100827.23
2023-05-09T17:53:45.547Z,100822.81
2023-05-09T17:56:12.244Z,100819.14
2023-05-09T17:58:38.848Z,100817.81
2023-05-09T18:01:05.903Z,100815.10
2023-05-09T18:03:33.053Z,100811.39
2023-05-09T18:06:02.836Z,100810.21
2023-05-09T18:08:30.010Z,100810.68
2023-05-09T18:10:57.371Z,100807.99
2023-05-09T18:13:24.327Z,100811.90
2023-05-09T18:15:51.268Z,100814.66
2023-05-09T18:18:18.065Z,100817.78
2023-05-09T18:20:47.132Z,100826.02
2023-05-09T18:23:15.145Z,100825.31
2023-05-09T18:25:42.071Z,100828.08
2023-05-09T18:28:09.426Z,100826.30
2023-05-09T18:30:36.354Z,100823.91
2023-05-09T18:33:03.174Z,100825.02
2023-05-09T18:35:30.026Z,100822.30
2023-05-09T18:37:56.701Z,100820.70
2023-05-09T18:40:23.406Z,100820.85
2023-05-09T18:42:50.099Z,100823.23
2023-05-09T18:45:16.854Z,100822.52
2023-05-09T18:47:43.485Z,100819.12
2023-05-09T18:50:10.892Z,100818.59
2023-05-09T18:52:37.597Z,100817.21
2023-05-09T18:55:05.986Z,100816.66
2023-05-09T18:57:33.924Z,100815.22
2023-05-09T19:00:00.666Z,100815.38
2023-05-09T19:02:27.441Z,100816.20
2023-05-09T19:04:54.151Z,100814.65
2023-05-09T19:07:20.849Z,100816.67
2023-05-09T19:09:47.808Z,100816.79
2023-05-09T19:12:16.391Z,100820.80
2023-05-09T19:14:43.367Z,100822.37
2023-05-09T19:17:10.943Z,100826.82
2023-05-09T19:19:37.746Z,100831.67
2023-05-09T19:22:04.907Z,100835.75
2023-05-09T19:24:32.830Z,100834.30
2023-05-09T19:26:59.516Z,100836.83
2023-05-09T19:29:26.329Z,100834.45
2023-05-09T19:31:52.963Z,100831.63
2023-05-09T19:34:19.540Z,100828.78
2023-05-09T19:36:46.297Z,100827.45
2023-05-09T19:39:13.005Z,100826.42
2023-05-09T19:41:39.912Z,100830.37
2023-05-09T19:44:09.438Z,100832.05
2023-05-09T19:46:38.283Z,100835.70
2023-05-09T19:49:06.195Z,100838.76
2023-05-09T19:51:32.861Z,100834.16
2023-05-09T19:53:59.566Z,100836.39
2023-05-09T19:56:26.199Z,100834.55
2023-05-09T19:58:53.292Z,100837.41
2023-05-09T20:01:20.364Z,100837.52
2023-05-09T20:03:47.358Z,100839.90
2023-05-09T20:06:14.074Z,100841.41
2023-05-09T20:08:40.852Z,100845.67
2023-05-09T20:11:07.844Z,100842.09
2023-05-09T20:13:34.433Z,100840.78
2023-05-09T20:16:02.759Z,100845.14
2023-05-09T20:18:33.202Z,100843.16
2023-05-09T20:21:01.219Z,100842.36
2023-05-09T20:23:28.625Z,100842.29
2023-05-09T20:25:56.105Z,100844.44
2023-05-09T20:28:23.028Z,100840.77
2023-05-09T20:30:50.156Z,100843.91
2023-05-09T20:33:16.762Z,100839.94
2023-05-09T20:35:43.970Z,100843.37
2023-05-09T20:38:11.588Z,100841.48
2023-05-09T20:40:38.600Z,100837.70
2023-05-09T20:43:05.481Z,100841.42
2023-05-09T20:45:32.347Z,100834.86
2023-05-09T20:47:59.340Z,100835.31
2023-05-09T20:50:26.070Z,100833.38
2023-05-09T20:52:52.661Z,100833.27
2023-05-09T20:55:19.470Z,100831.50
2023-05-09T20:57:46.014Z,100828.54
2023-05-09T21:00:13.307Z,100829.75
2023-05-09T21:02:40.201Z,100824.53
2023-05-09T21:05:07.356Z,100823.51
2023-05-09T21:07:33.932Z,100824.20
2023-05-09T21:10:00.525Z,100824.36
2023-05-09T21:12:27.826Z,100821.71
2023-05-09T21:14:54.377Z,100819.84
2023-05-09T21:17:20.966Z,100821.20
2023-05-09T21:19:51.464Z,100816.01
2023-05-09T21:22:18.323Z,100817.13
2023-05-09T21:24:44.862Z,100816.31
2023-05-09T21:27:11.476Z,100817.45
2023-05-09T21:29:38.054Z,100817.02
2023-05-09T21:32:04.767Z,100817.91
2023-05-09T21:34:31.408Z,100816.75
2023-05-09T21:36:57.997Z,100815.11
2023-05-09T21:39:24.748Z,100815.58
2023-05-09T21:41:51.278Z,100813.69
2023-05-09T21:44:17.890Z,100811.77
2023-05-09T21:46:46.270Z,100812.59
2023-05-09T21:49:16.612Z,100810.66
2023-05-09T21:51:43.270Z,100804.68
2023-05-09T21:54:10.790Z,100802.97
2023-05-09T21:56:37.723Z,100796.66
2023-05-09T21:59:04.699Z,100792.96
2023-05-09T22:01:31.570Z,100792.42
2023-05-09T22:03:58.767Z,100793.70
2023-05-09T22:06:25.949Z,100793.60
2023-05-09T22:08:52.660Z,100791.33
2023-05-09T22:11:19.507Z,100785.40
2023-05-09T22:13:46.017Z,100786.57
2023-05-09T22:16:13.231Z,100785.09
2023-05-09T22:18:39.840Z,100782.59
2023-05-09T22:21:06.404Z,100780.88
2023-05-09T22:23:33.029Z,100780.27
2023-05-09T22:25:59.589Z,100777.76
2023-05-09T22:28:28.382Z,100776.71
2023-05-09T22:30:55.014Z,100776.77
2023-05-09T22:33:21.930Z,100775.05
2023-05-09T22:35:48.478Z,100770.88
2023-05-09T22:38:15.156Z,100767.95
2023-05-09T22:40:41.744Z,100761.52
2023-05-09T22:43:10.556Z,100761.13
2023-05-09T22:45:37.306Z,100756.75
2023-05-09T22:48:04.241Z,100754.14
2023-05-09T22:50:31.081Z,100750.10
2023-05-09T22:52:57.735Z,100746.46
2023-05-09T22:55:24.430Z,100742.85
2023-05-09T22:57:51.098Z,100740.40
2023-05-09T23:00:18.317Z,100734.14
2023-05-09T23:02:45.698Z,100730.98
2023-05-09T23:05:12.571Z,100731.09
2023-05-09T23:07:39.265Z,100723.67
2023-05-09T23:10:07.692Z,100724.66
2023-05-09T23:12:34.364Z,100725.71
2023-05-09T23:15:01.110Z,100718.17
2023-05-09T23:17:27.842Z,100717.39
2023-05-09T23:19:54.529Z,100715.45
2023-05-09T23:22:21.285Z,100708.33
2023-05-09T23:24:48.392Z,100702.89
2023-05-09T23:27:15.156Z,100702.29
2023-05-09T23:29:41.829Z,100699.11
2023-05-09T23:32:08.481Z,100697.30
2023-05-09T23:34:36.701Z,100695.52
2023-05-09T23:37:04.318Z,100691.89
2023-05-09T23:39:31.639Z,100690.51
2023-05-09T23:41:58.601Z,100688.02
2023-05-09T23:44:25.792Z,100683.80
2023-05-09T23:46:52.623Z,100681.92
2023-05-09T23:49:19.478Z,100679.27
2023-05-09T23:51:46.060Z,100672.69
2023-05-09T23:54:12.750Z,100671.63
2023-05-09T23:56:39.959Z,100669.41
2023-05-09T23:59:06.678Z,100668.86
